createdAt,value
2023-04-20T00:00:09.895Z,44.58
2023-04-20T00:01:09.895Z,44.51
2023-04-20T00:02:09.944Z,44.53
2023-04-20T00:03:10.023Z,44.74
2023-04-20T00:04:09.930Z,44.53
2023-04-20T00:05:09.868Z,44.57
2023-04-20T00:06:08.841Z,44.53
2023-04-20T00:07:09.821Z,44.54
2023-04-20T00:08:08.819Z,44.54
2023-04-20T00:09:08.835Z,44.58
2023-04-20T00:10:09.853Z,44.70
2023-04-20T00:11:08.847Z,44.58
2023-04-20T00:12:08.853Z,44.52
2023-04-20T00:13:09.867Z,44.54
2023-04-20T00:14:09.809Z,44.61
2023-04-20T00:15:09.795Z,44.52
2023-04-20T00:16:09.855Z,44.38
2023-04-20T00:17:09.838Z,44.49
2023-04-20T00:18:09.834Z,44.49
2023-04-20T00:19:10.090Z,44.42
2023-04-20T00:20:09.906Z,44.39
2023-04-20T00:21:08.887Z,44.30
2023-04-20T00:22:09.909Z,44.32
2023-04-20T00:23:09.908Z,44.45
2023-04-20T00:24:09.935Z,44.39
2023-04-20T00:25:09.943Z,44.51
2023-04-20T00:26:09.025Z,44.52
2023-04-20T00:27:09.999Z,44.28
2023-04-20T00:28:10.019Z,44.42
2023-04-20T00:29:09.064Z,44.38
2023-04-20T00:30:10.085Z,44.30
2023-04-20T00:31:10.154Z,44.28
2023-04-20T00:32:09.187Z,44.34
2023-04-20T00:33:09.144Z,44.44
2023-04-20T00:34:10.178Z,44.40
2023-04-20T00:35:10.216Z,44.54
2023-04-20T00:36:09.416Z,44.38
2023-04-20T00:37:10.480Z,44.30
2023-04-20T00:38:10.325Z,44.40
2023-04-20T00:39:10.838Z,44.40
2023-04-20T00:40:10.379Z,44.42
2023-04-20T00:41:10.413Z,44.40
2023-04-20T00:42:09.440Z,44.40
2023-04-20T00:43:09.475Z,44.35
2023-04-20T00:44:10.489Z,44.40
2023-04-20T00:45:10.574Z,44.37
2023-04-20T00:46:10.573Z,44.48
2023-04-20T00:47:10.586Z,44.36
2023-04-20T00:48:10.631Z,44.27
2023-04-20T00:49:09.632Z,44.38
2023-04-20T00:50:09.733Z,44.23
2023-04-20T00:51:10.694Z,44.15
2023-04-20T00:52:10.768Z,44.26
2023-04-20T00:53:10.772Z,44.31
2023-04-20T00:54:10.767Z,44.31
2023-04-20T00:55:10.788Z,44.24
2023-04-20T00:56:09.805Z,44.36
2023-04-20T00:57:09.861Z,44.16
2023-04-20T00:58:09.850Z,44.25
2023-04-20T00:59:10.897Z,44.29
2023-04-20T01:00:10.918Z,44.21
2023-04-20T01:01:11.002Z,44.20
2023-04-20T01:02:10.965Z,44.11
2023-04-20T01:03:11.096Z,44.21
2023-04-20T01:04:11.184Z,44.33
2023-04-20T01:05:11.058Z,44.27
2023-04-20T01:06:10.103Z,44.26
2023-04-20T01:07:11.086Z,44.20
2023-04-20T01:08:10.147Z,44.28
2023-04-20T01:09:11.188Z,44.29
2023-04-20T01:10:11.185Z,44.39
2023-04-20T01:11:10.241Z,44.26
2023-04-20T01:12:13.697Z,44.25
2023-04-20T01:13:10.244Z,44.30
2023-04-20T01:14:10.254Z,44.25
2023-04-20T01:15:11.267Z,44.10
2023-04-20T01:16:10.331Z,44.08
2023-04-20T01:17:11.201Z,44.27
2023-04-20T01:18:10.188Z,44.10
2023-04-20T01:19:11.252Z,44.30
2023-04-20T01:20:10.229Z,44.20
2023-04-20T01:21:10.217Z,44.19
2023-04-20T01:22:11.225Z,44.17
2023-04-20T01:23:11.190Z,44.22
2023-04-20T01:24:10.235Z,44.15
2023-04-20T01:25:11.204Z,44.07
2023-04-20T01:26:11.179Z,44.09
2023-04-20T01:27:11.229Z,44.14
2023-04-20T01:28:11.164Z,44.19
2023-04-20T01:29:11.139Z,44.08
2023-04-20T01:30:11.124Z,43.94
2023-04-20T01:31:10.138Z,44.02
2023-04-20T01:32:10.108Z,44.19
2023-04-20T01:33:10.272Z,44.10
2023-04-20T01:34:11.117Z,44.06
2023-04-20T01:35:11.110Z,44.08
2023-04-20T01:36:11.100Z,43.95
2023-04-20T01:37:10.092Z,44.05
2023-04-20T01:38:10.082Z,44.12
2023-04-20T01:39:10.134Z,44.02
2023-04-20T01:40:10.096Z,44.10
2023-04-20T01:41:10.060Z,44.04
2023-04-20T01:42:10.088Z,44.08
2023-04-20T01:43:10.053Z,44.02
2023-04-20T01:44:10.254Z,44.12
2023-04-20T01:45:10.101Z,43.98
2023-04-20T01:46:10.322Z,44.00
2023-04-20T01:47:11.034Z,44.00
2023-04-20T01:48:10.018Z,44.07
2023-04-20T01:49:11.007Z,44.11
2023-04-20T01:50:10.025Z,43.95
2023-04-20T01:51:11.035Z,44.07
2023-04-20T01:52:11.029Z,43.94
2023-04-20T01:53:10.026Z,44.01
2023-04-20T01:54:10.011Z,44.02
2023-04-20T01:55:10.999Z,44.04
2023-04-20T01:56:11.047Z,44.14
2023-04-20T01:57:11.068Z,44.05
2023-04-20T01:58:11.106Z,43.97
2023-04-20T01:59:11.117Z,44.02
2023-04-20T02:00:10.215Z,43.97
2023-04-20T02:01:11.280Z,44.02
2023-04-20T02:02:11.287Z,44.12
2023-04-20T02:03:11.378Z,44.07
2023-04-20T02:04:11.316Z,44.05
2023-04-20T02:05:11.359Z,43.96
2023-04-20T02:06:10.325Z,43.99
2023-04-20T02:07:11.361Z,44.14
2023-04-20T02:08:10.813Z,44.20
2023-04-20T02:09:11.428Z,44.11
2023-04-20T02:10:10.486Z,44.21
2023-04-20T02:11:10.530Z,44.14
2023-04-20T02:12:10.566Z,44.25
2023-04-20T02:13:10.654Z,44.09
2023-04-20T02:14:10.654Z,44.04
2023-04-20T02:15:11.657Z,44.08
2023-04-20T02:16:11.710Z,44.02
2023-04-20T02:17:11.765Z,43.99
2023-04-20T02:18:11.785Z,43.92
2023-04-20T02:19:10.784Z,43.80
2023-04-20T02:20:11.773Z,43.85
2023-04-20T02:21:11.808Z,43.83
2023-04-20T02:22:10.825Z,43.71
2023-04-20T02:23:11.868Z,43.77
2023-04-20T02:24:11.900Z,43.69
2023-04-20T02:25:10.926Z,43.65
2023-04-20T02:26:10.948Z,43.64
2023-04-20T02:27:10.954Z,43.59
2023-04-20T02:28:10.966Z,43.54
2023-04-20T02:29:12.100Z,43.54
2023-04-20T02:30:12.611Z,43.58
2023-04-20T02:31:12.078Z,43.62
2023-04-20T02:32:11.067Z,43.60
2023-04-20T02:33:11.032Z,43.47
2023-04-20T02:34:12.041Z,43.38
2023-04-20T02:35:12.060Z,43.36
2023-04-20T02:36:12.068Z,43.36
2023-04-20T02:37:12.065Z,43.39
2023-04-20T02:38:12.099Z,43.21
2023-04-20T02:39:11.083Z,43.37
2023-04-20T02:40:12.115Z,43.30
2023-04-20T02:41:11.092Z,43.22
2023-04-20T02:42:12.126Z,43.23
2023-04-20T02:43:11.239Z,43.21
2023-04-20T02:44:12.119Z,43.12
2023-04-20T02:45:11.171Z,43.08
2023-04-20T02:46:12.204Z,43.12
2023-04-20T02:47:12.195Z,43.14
2023-04-20T02:48:11.217Z,42.97
2023-04-20T02:49:12.241Z,42.97
2023-04-20T02:50:11.292Z,42.95
2023-04-20T02:51:12.347Z,43.00
2023-04-20T02:52:12.366Z,42.87
2023-04-20T02:53:12.403Z,42.88
2023-04-20T02:54:12.542Z,42.85
2023-04-20T02:55:11.486Z,42.78
2023-04-20T02:56:11.633Z,42.81
2023-04-20T02:57:12.628Z,42.82
2023-04-20T02:58:11.614Z,42.73
2023-04-20T02:59:11.706Z,42.69
2023-04-20T03:00:12.896Z,42.76
2023-04-20T03:01:12.724Z,42.66
2023-04-20T03:02:12.985Z,42.63
2023-04-20T03:03:11.936Z,42.68
2023-04-20T03:04:11.900Z,42.69
2023-04-20T03:05:12.866Z,42.63
2023-04-20T03:06:12.901Z,42.62
2023-04-20T03:07:13.063Z,42.58
2023-04-20T03:08:12.981Z,42.61
2023-04-20T03:09:12.341Z,42.63
2023-04-20T03:10:13.674Z,42.53
2023-04-20T03:11:13.139Z,42.48
2023-04-20T03:12:12.216Z,42.50
2023-04-20T03:13:12.226Z,42.45
2023-04-20T03:14:13.261Z,42.44
2023-04-20T03:15:13.304Z,42.40
2023-04-20T03:16:13.720Z,42.44
2023-04-20T03:17:13.389Z,42.45
2023-04-20T03:18:13.487Z,42.40
2023-04-20T03:19:12.518Z,42.42
2023-04-20T03:20:13.562Z,42.43
2023-04-20T03:21:13.603Z,42.41
2023-04-20T03:22:12.670Z,42.44
2023-04-20T03:23:13.707Z,42.34
2023-04-20T03:24:13.818Z,42.40
2023-04-20T03:25:12.806Z,42.35
2023-04-20T03:26:12.880Z,42.30
2023-04-20T03:27:13.900Z,42.26
2023-04-20T03:28:13.021Z,42.25
2023-04-20T03:29:14.005Z,42.29
2023-04-20T03:30:13.075Z,42.20
2023-04-20T03:31:13.117Z,42.18
2023-04-20T03:32:13.279Z,42.25
2023-04-20T03:33:14.220Z,42.20
2023-04-20T03:34:13.256Z,42.26
2023-04-20T03:35:14.322Z,42.13
2023-04-20T03:36:13.360Z,42.17
2023-04-20T03:37:13.401Z,42.22
2023-04-20T03:38:13.517Z,42.14
2023-04-20T03:39:14.539Z,42.14
2023-04-20T03:40:15.041Z,42.15
2023-04-20T03:41:13.608Z,42.16
2023-04-20T03:42:13.692Z,42.25
2023-04-20T03:43:14.913Z,42.18
2023-04-20T03:44:13.719Z,42.09
2023-04-20T03:45:13.817Z,42.13
2023-04-20T03:46:14.864Z,42.15
2023-04-20T03:47:13.950Z,42.17
2023-04-20T03:48:14.975Z,42.23
2023-04-20T03:49:15.085Z,42.12
2023-04-20T03:50:15.044Z,42.08
2023-04-20T03:51:15.155Z,42.12
2023-04-20T03:52:14.112Z,42.14
2023-04-20T03:53:14.222Z,41.99
2023-04-20T03:54:15.268Z,42.07
2023-04-20T03:55:15.271Z,42.04
2023-04-20T03:56:15.362Z,42.01
2023-04-20T03:57:15.362Z,42.06
2023-04-20T03:58:14.431Z,42.01
2023-04-20T03:59:15.623Z,42.04
2023-04-20T04:00:15.532Z,42.02
2023-04-20T04:01:15.589Z,41.97
2023-04-20T04:02:15.641Z,42.00
2023-04-20T04:03:14.803Z,42.05
2023-04-20T04:04:15.952Z,41.96
2023-04-20T04:05:15.853Z,41.99
2023-04-20T04:06:15.816Z,41.95
2023-04-20T04:07:15.838Z,41.91
2023-04-20T04:08:15.868Z,41.91
2023-04-20T04:09:16.144Z,41.86
2023-04-20T04:10:14.997Z,41.90
2023-04-20T04:11:15.120Z,41.87
2023-04-20T04:12:16.110Z,41.91
2023-04-20T04:13:15.128Z,41.85
2023-04-20T04:14:16.216Z,41.86
2023-04-20T04:15:16.221Z,41.83
2023-04-20T04:16:16.262Z,41.84
2023-04-20T04:17:16.399Z,41.84
2023-04-20T04:18:16.385Z,41.94
2023-04-20T04:19:16.742Z,41.84
2023-04-20T04:20:15.473Z,41.89
2023-04-20T04:21:15.523Z,41.90
2023-04-20T04:22:16.522Z,41.86
2023-04-20T04:23:15.598Z,41.82
2023-04-20T04:24:16.600Z,41.85
2023-04-20T04:25:16.655Z,41.86
2023-04-20T04:26:15.706Z,41.83
2023-04-20T04:27:16.745Z,41.84
2023-04-20T04:28:15.759Z,41.76
2023-04-20T04:29:17.108Z,41.79
2023-04-20T04:30:16.906Z,41.71
2023-04-20T04:31:15.988Z,41.78
2023-04-20T04:32:15.983Z,41.72
2023-04-20T04:33:17.012Z,41.89
2023-04-20T04:34:16.037Z,41.85
2023-04-20T04:35:17.096Z,41.83
2023-04-20T04:36:17.162Z,41.82
2023-04-20T04:37:17.161Z,41.75
2023-04-20T04:38:17.274Z,41.70
2023-04-20T04:39:16.514Z,41.76
2023-04-20T04:40:16.327Z,41.76
2023-04-20T04:41:16.385Z,41.83
2023-04-20T04:42:17.408Z,41.76
2023-04-20T04:43:16.478Z,41.75
2023-04-20T04:44:16.504Z,41.80
2023-04-20T04:45:17.546Z,41.75
2023-04-20T04:46:16.636Z,41.79
2023-04-20T04:47:17.686Z,41.78
2023-04-20T04:48:17.702Z,41.70
2023-04-20T04:49:18.007Z,41.70
2023-04-20T04:50:16.813Z,41.72
2023-04-20T04:51:16.845Z,41.75
2023-04-20T04:52:16.917Z,41.71
2023-04-20T04:53:17.924Z,41.69
2023-04-20T04:54:17.990Z,41.72
2023-04-20T04:55:17.033Z,41.70
2023-04-20T04:56:18.088Z,41.67
2023-04-20T04:57:17.164Z,41.70
2023-04-20T04:58:17.166Z,41.62
2023-04-20T04:59:18.500Z,41.66
2023-04-20T05:00:17.244Z,41.63
2023-04-20T05:01:17.306Z,41.65
2023-04-20T05:02:18.450Z,41.65
2023-04-20T05:03:17.613Z,41.62
2023-04-20T05:04:18.522Z,41.62
2023-04-20T05:05:18.637Z,41.70
2023-04-20T05:06:27.886Z,41.61
2023-04-20T05:07:17.477Z,41.58
2023-04-20T05:08:17.466Z,41.61
2023-04-20T05:09:17.720Z,41.54
2023-04-20T05:10:17.464Z,41.60
2023-04-20T05:11:18.452Z,41.64
2023-04-20T05:12:18.440Z,41.52
2023-04-20T05:13:18.513Z,41.54
2023-04-20T05:14:18.420Z,41.63
2023-04-20T05:15:18.430Z,41.58
2023-04-20T05:16:17.472Z,41.58
2023-04-20T05:17:18.488Z,41.64
2023-04-20T05:18:17.421Z,41.60
2023-04-20T05:19:18.617Z,41.61
2023-04-20T05:20:17.413Z,41.59
2023-04-20T05:21:17.397Z,41.60
2023-04-20T05:22:18.384Z,41.65
2023-04-20T05:23:17.380Z,41.80
2023-04-20T05:24:17.358Z,41.75
2023-04-20T05:25:18.389Z,41.70
2023-04-20T05:26:18.366Z,41.74
2023-04-20T05:27:18.336Z,41.70
2023-04-20T05:28:17.328Z,41.98
2023-04-20T05:29:17.693Z,42.06
2023-04-20T05:30:21.756Z,41.60
2023-04-20T05:31:17.397Z,41.71
2023-04-20T05:32:18.382Z,41.84
2023-04-20T05:33:18.362Z,41.95
2023-04-20T05:34:18.368Z,41.81
2023-04-20T05:35:18.426Z,41.92
2023-04-20T05:36:17.330Z,42.13
2023-04-20T05:37:18.343Z,42.58
2023-04-20T05:38:18.359Z,42.70
2023-04-20T05:39:18.542Z,42.46
2023-04-20T05:40:17.329Z,42.61
2023-04-20T05:41:17.296Z,43.28
2023-04-20T05:42:18.313Z,43.38
2023-04-20T05:43:18.305Z,44.09
2023-04-20T05:44:17.285Z,44.27
2023-04-20T05:45:18.280Z,43.89
2023-04-20T05:46:17.367Z,43.54
2023-04-20T05:47:18.417Z,43.42
2023-04-20T05:48:17.311Z,43.79
2023-04-20T05:49:18.511Z,43.67
2023-04-20T05:50:18.254Z,43.69
2023-04-20T05:51:17.298Z,43.69
2023-04-20T05:52:18.315Z,43.76
2023-04-20T05:53:17.358Z,44.20
2023-04-20T05:54:17.434Z,44.26
2023-04-20T05:55:20.578Z,44.37
2023-04-20T05:56:17.472Z,43.91
2023-04-20T05:57:17.424Z,44.38
2023-04-20T05:58:18.421Z,45.53
2023-04-20T05:59:17.703Z,44.84
2023-04-20T06:00:17.435Z,45.55
2023-04-20T06:01:17.421Z,44.94
2023-04-20T06:02:17.982Z,44.98
2023-04-20T06:03:17.637Z,44.92
2023-04-20T06:04:18.732Z,44.89
2023-04-20T06:05:18.406Z,44.33
2023-04-20T06:06:17.356Z,44.28
2023-04-20T06:07:18.425Z,44.29
2023-04-20T06:08:17.362Z,44.13
2023-04-20T06:09:17.585Z,44.18
2023-04-20T06:10:18.376Z,44.10
2023-04-20T06:11:17.381Z,44.17
2023-04-20T06:12:17.373Z,44.08
2023-04-20T06:13:18.455Z,44.25
2023-04-20T06:14:18.465Z,44.21
2023-04-20T06:15:17.583Z,44.26
2023-04-20T06:16:18.582Z,44.14
2023-04-20T06:17:17.539Z,44.01
2023-04-20T06:18:18.683Z,44.12
2023-04-20T06:19:19.506Z,44.09
2023-04-20T06:20:18.698Z,44.09
2023-04-20T06:21:18.742Z,44.09
2023-04-20T06:22:18.841Z,43.91
2023-04-20T06:23:18.814Z,43.88
2023-04-20T06:24:17.865Z,43.87
2023-04-20T06:25:18.884Z,43.93
2023-04-20T06:26:18.913Z,43.78
2023-04-20T06:27:18.981Z,43.86
2023-04-20T06:28:17.997Z,43.90
2023-04-20T06:29:19.386Z,43.85
2023-04-20T06:30:19.135Z,43.78
2023-04-20T06:31:18.186Z,43.91
2023-04-20T06:32:19.263Z,43.72
2023-04-20T06:33:19.254Z,43.80
2023-04-20T06:34:18.254Z,43.67
2023-04-20T06:35:19.284Z,43.70
2023-04-20T06:36:19.360Z,43.58
2023-04-20T06:37:19.396Z,43.52
2023-04-20T06:38:19.478Z,43.55
2023-04-20T06:39:20.087Z,43.63
2023-04-20T06:40:18.547Z,43.64
2023-04-20T06:41:18.620Z,43.61
2023-04-20T06:42:18.607Z,43.55
2023-04-20T06:43:19.696Z,43.47
2023-04-20T06:44:19.749Z,43.56
2023-04-20T06:45:19.768Z,43.61
2023-04-20T06:46:18.912Z,43.55
2023-04-20T06:47:19.890Z,43.52
2023-04-20T06:48:31.553Z,43.43
2023-04-20T06:49:20.106Z,43.48
2023-04-20T06:50:19.908Z,43.57
2023-04-20T06:51:18.953Z,43.50
2023-04-20T06:52:18.885Z,43.45
2023-04-20T06:53:19.898Z,43.45
2023-04-20T06:54:19.913Z,43.61
2023-04-20T06:55:19.951Z,43.60
2023-04-20T06:56:19.939Z,43.48
2023-04-20T06:57:18.914Z,44.25
2023-04-20T06:58:18.866Z,43.61
2023-04-20T06:59:19.174Z,43.73
2023-04-20T07:00:19.855Z,43.86
2023-04-20T07:01:18.867Z,43.88
2023-04-20T07:02:18.954Z,44.24
2023-04-20T07:03:20.072Z,44.15
2023-04-20T07:04:19.895Z,44.07
2023-04-20T07:05:19.882Z,43.91
2023-04-20T07:06:18.787Z,44.40
2023-04-20T07:07:19.807Z,44.57
2023-04-20T07:08:19.793Z,44.50
2023-04-20T07:09:18.908Z,44.79
2023-04-20T07:10:19.780Z,44.73
2023-04-20T07:11:19.808Z,44.88
2023-04-20T07:12:18.871Z,44.65
2023-04-20T07:13:19.762Z,44.60
2023-04-20T07:14:19.745Z,44.34
2023-04-20T07:15:19.745Z,44.37
2023-04-20T07:16:19.811Z,44.70
2023-04-20T07:17:19.771Z,44.68
2023-04-20T07:18:19.777Z,44.87
2023-04-20T07:19:19.903Z,44.88
2023-04-20T07:20:19.801Z,44.89
2023-04-20T07:21:19.820Z,44.89
2023-04-20T07:22:18.856Z,44.75
2023-04-20T07:23:18.870Z,44.92
2023-04-20T07:24:19.905Z,44.85
2023-04-20T07:25:18.914Z,44.91
2023-04-20T07:26:18.901Z,45.26
2023-04-20T07:27:18.930Z,45.21
2023-04-20T07:28:19.946Z,45.27
2023-04-20T07:29:20.262Z,45.65
2023-04-20T07:30:19.952Z,45.21
2023-04-20T07:31:20.056Z,45.35
2023-04-20T07:32:20.055Z,45.46
2023-04-20T07:33:19.983Z,45.71
2023-04-20T07:34:19.333Z,45.64
2023-04-20T07:35:19.042Z,45.80
2023-04-20T07:36:20.062Z,45.72
2023-04-20T07:37:20.056Z,45.61
2023-04-20T07:38:20.092Z,45.73
2023-04-20T07:39:19.302Z,45.90
2023-04-20T07:40:19.094Z,45.85
2023-04-20T07:41:20.147Z,46.06
2023-04-20T07:42:19.293Z,46.00
2023-04-20T07:43:20.412Z,46.06
2023-04-20T07:44:20.236Z,46.32
2023-04-20T07:45:20.256Z,46.42
2023-04-20T07:46:20.495Z,46.27
2023-04-20T07:47:20.339Z,46.76
2023-04-20T07:48:20.353Z,46.24
2023-04-20T07:49:19.726Z,45.97
2023-04-20T07:50:20.476Z,45.99
2023-04-20T07:51:20.941Z,45.69
2023-04-20T07:52:19.491Z,45.19
2023-04-20T07:53:19.507Z,45.32
2023-04-20T07:54:20.530Z,45.27
2023-04-20T07:55:20.597Z,44.88
2023-04-20T07:56:20.643Z,44.79
2023-04-20T07:57:20.692Z,44.34
2023-04-20T07:58:20.710Z,41.63
2023-04-20T07:59:20.847Z,39.72
2023-04-20T08:00:19.732Z,42.04
2023-04-20T08:01:20.777Z,41.53
2023-04-20T08:02:20.919Z,40.02
2023-04-20T08:03:20.050Z,39.63
2023-04-20T08:04:21.063Z,38.48
2023-04-20T08:05:20.096Z,38.00
2023-04-20T08:06:20.915Z,38.60
2023-04-20T08:07:20.981Z,39.24
2023-04-20T08:08:21.030Z,38.17
2023-04-20T08:09:21.055Z,39.84
2023-04-20T08:10:21.114Z,37.02
2023-04-20T08:11:20.300Z,37.99
2023-04-20T08:12:20.180Z,37.09
2023-04-20T08:13:21.267Z,38.84
2023-04-20T08:14:21.403Z,39.28
2023-04-20T08:15:21.414Z,38.41
2023-04-20T08:16:20.383Z,38.88
2023-04-20T08:17:21.608Z,38.47
2023-04-20T08:18:21.600Z,39.06
2023-04-20T08:19:20.517Z,38.99
2023-04-20T08:20:21.550Z,39.57
2023-04-20T08:21:22.377Z,38.87
2023-04-20T08:22:21.574Z,39.04
2023-04-20T08:23:20.559Z,38.84
2023-04-20T08:24:21.574Z,39.03
2023-04-20T08:25:20.549Z,38.76
2023-04-20T08:26:20.546Z,38.82
2023-04-20T08:27:21.548Z,38.00
2023-04-20T08:28:32.900Z,38.89
2023-04-20T08:29:21.513Z,38.74
2023-04-20T08:30:20.547Z,38.72
2023-04-20T08:31:21.659Z,38.83
2023-04-20T08:32:21.979Z,38.81
2023-04-20T08:33:21.514Z,39.16
2023-04-20T08:34:21.503Z,39.07
2023-04-20T08:35:20.480Z,39.07
2023-04-20T08:36:21.508Z,38.95
2023-04-20T08:37:21.452Z,38.93
2023-04-20T08:39:32.479Z,38.81
2023-04-20T08:40:33.452Z,38.79
2023-04-20T08:41:33.457Z,38.65
2023-04-20T08:42:32.445Z,38.98
2023-04-20T08:43:33.438Z,39.04
2023-04-20T08:44:33.440Z,38.02
2023-04-20T08:45:32.459Z,37.46
2023-04-20T08:46:33.522Z,38.55
2023-04-20T08:47:33.515Z,38.36
2023-04-20T08:48:33.638Z,38.65
2023-04-20T08:49:33.396Z,37.61
2023-04-20T08:50:33.456Z,37.62
2023-04-20T08:51:33.392Z,38.33
2023-04-20T08:52:32.377Z,36.47
2023-04-20T08:53:33.406Z,37.45
2023-04-20T08:54:32.617Z,36.87
2023-04-20T08:55:33.416Z,37.47
2023-04-20T08:56:33.360Z,37.30
2023-04-20T08:57:33.761Z,37.69
2023-04-20T08:58:33.336Z,37.53
2023-04-20T08:59:33.361Z,37.59
2023-04-20T09:00:32.322Z,37.48
2023-04-20T09:01:35.509Z,38.42
2023-04-20T09:02:33.540Z,38.51
2023-04-20T09:03:33.444Z,38.51
2023-04-20T09:04:32.374Z,38.00
2023-04-20T09:05:33.297Z,38.28
2023-04-20T09:06:33.284Z,38.61
2023-04-20T09:07:33.292Z,38.59
2023-04-20T09:08:33.273Z,38.99
2023-04-20T09:09:33.285Z,38.99
2023-04-20T09:10:32.262Z,38.93
2023-04-20T09:11:32.295Z,38.88
2023-04-20T09:12:33.243Z,39.38
2023-04-20T09:13:32.248Z,39.46
2023-04-20T09:14:33.229Z,39.68
2023-04-20T09:15:32.228Z,39.67
2023-04-20T09:16:33.317Z,39.57
2023-04-20T09:17:33.367Z,39.79
2023-04-20T09:18:33.295Z,39.79
2023-04-20T09:19:33.204Z,39.94
2023-04-20T09:20:33.192Z,40.23
2023-04-20T09:21:32.180Z,39.60
2023-04-20T09:22:33.197Z,40.23
2023-04-20T09:23:33.171Z,40.50
2023-04-20T09:24:32.180Z,40.60
2023-04-20T09:25:32.165Z,40.39
2023-04-20T09:26:32.175Z,42.14
2023-04-20T09:27:33.139Z,39.72
2023-04-20T09:28:33.132Z,40.46
2023-04-20T09:29:33.127Z,40.62
2023-04-20T09:30:33.173Z,40.60
2023-04-20T09:31:33.197Z,40.53
2023-04-20T09:32:33.170Z,40.62
2023-04-20T09:33:33.144Z,39.77
2023-04-20T09:34:33.305Z,40.20
2023-04-20T09:35:32.289Z,40.81
2023-04-20T09:36:33.335Z,40.85
2023-04-20T09:37:32.335Z,41.13
2023-04-20T09:38:33.372Z,40.04
2023-04-20T09:39:32.401Z,41.37
2023-04-20T09:40:32.421Z,40.96
2023-04-20T09:41:33.502Z,41.34
2023-04-20T09:42:33.526Z,41.24
2023-04-20T09:43:33.535Z,40.59
2023-04-20T09:44:33.596Z,41.11
2023-04-20T09:45:33.650Z,41.18
2023-04-20T09:46:33.662Z,40.94
2023-04-20T09:47:32.787Z,40.92
2023-04-20T09:48:32.729Z,40.61
2023-04-20T09:49:32.753Z,41.16
2023-04-20T09:50:45.686Z,41.29
2023-04-20T09:51:34.762Z,41.99
2023-04-20T09:52:34.285Z,41.91
2023-04-20T09:53:33.757Z,41.71
2023-04-20T09:54:33.737Z,41.55
2023-04-20T09:55:33.734Z,41.71
2023-04-20T09:56:33.729Z,41.40
2023-04-20T09:57:33.732Z,41.64
2023-04-20T09:58:32.731Z,41.46
2023-04-20T09:59:33.729Z,41.42
2023-04-20T10:00:33.712Z,41.44
2023-04-20T10:01:33.759Z,41.63
2023-04-20T10:02:33.827Z,41.89
2023-04-20T10:03:33.935Z,41.76
2023-04-20T10:04:33.877Z,41.93
2023-04-20T10:05:32.804Z,41.74
2023-04-20T10:06:32.857Z,41.87
2023-04-20T10:07:33.883Z,42.40
2023-04-20T10:08:32.877Z,42.02
2023-04-20T10:09:33.923Z,42.30
2023-04-20T10:10:33.920Z,42.09
2023-04-20T10:11:44.568Z,42.92
2023-04-20T10:12:33.963Z,43.00
2023-04-20T10:13:32.933Z,42.70
2023-04-20T10:14:33.962Z,43.25
2023-04-20T10:15:33.955Z,42.77
2023-04-20T10:16:33.988Z,42.74
2023-04-20T10:17:34.027Z,43.05
2023-04-20T10:18:33.089Z,42.24
2023-04-20T10:19:33.916Z,42.68
2023-04-20T10:20:32.903Z,42.78
2023-04-20T10:21:33.894Z,43.26
2023-04-20T10:22:34.052Z,43.12
2023-04-20T10:23:32.869Z,42.85
2023-04-20T10:24:33.864Z,42.99
2023-04-20T10:25:32.868Z,43.15
2023-04-20T10:26:33.847Z,43.07
2023-04-20T10:27:33.837Z,42.82
2023-04-20T10:28:32.837Z,43.33
2023-04-20T10:29:34.510Z,43.48
2023-04-20T10:30:33.834Z,43.38
2023-04-20T10:31:33.881Z,43.40
2023-04-20T10:32:32.842Z,44.14
2023-04-20T10:33:33.806Z,43.58
2023-04-20T10:34:33.804Z,43.63
2023-04-20T10:35:33.796Z,43.75
2023-04-20T10:36:32.830Z,43.52
2023-04-20T10:37:33.854Z,43.87
2023-04-20T10:38:33.856Z,44.21
2023-04-20T10:39:33.772Z,43.98
2023-04-20T10:40:32.753Z,44.19
2023-04-20T10:41:32.792Z,44.14
2023-04-20T10:42:33.808Z,44.58
2023-04-20T10:43:33.736Z,43.74
2023-04-20T10:44:33.733Z,43.27
2023-04-20T10:45:33.731Z,44.49
2023-04-20T10:46:33.893Z,43.97
2023-04-20T10:47:33.873Z,43.29
2023-04-20T10:48:33.699Z,43.15
2023-04-20T10:49:33.690Z,43.43
2023-04-20T10:50:33.732Z,43.19
2023-04-20T10:51:33.700Z,43.25
2023-04-20T10:52:33.703Z,43.05
2023-04-20T10:53:33.680Z,43.49
2023-04-20T10:54:32.826Z,44.43
2023-04-20T10:55:33.681Z,44.40
2023-04-20T10:56:33.689Z,44.12
2023-04-20T10:57:32.655Z,43.96
2023-04-20T10:58:33.709Z,44.06
2023-04-20T10:59:33.692Z,43.48
2023-04-20T11:00:33.652Z,44.13
2023-04-20T11:01:33.680Z,43.93
2023-04-20T11:02:33.830Z,43.23
2023-04-20T11:03:33.720Z,43.05
2023-04-20T11:04:33.701Z,43.58
2023-04-20T11:05:33.597Z,43.65
2023-04-20T11:06:33.596Z,44.04
2023-04-20T11:07:32.582Z,43.41
2023-04-20T11:08:33.572Z,43.74
2023-04-20T11:09:33.593Z,43.03
2023-04-20T11:10:33.606Z,43.04
2023-04-20T11:11:33.563Z,43.22
2023-04-20T11:12:32.577Z,42.85
2023-04-20T11:13:33.606Z,43.24
2023-04-20T11:14:33.645Z,42.22
2023-04-20T11:15:33.689Z,42.27
2023-04-20T11:16:46.893Z,42.77
2023-04-20T11:17:33.790Z,43.03
2023-04-20T11:18:33.728Z,43.18
2023-04-20T11:19:32.718Z,42.76
2023-04-20T11:20:33.728Z,42.39
2023-04-20T11:21:33.705Z,42.74
2023-04-20T11:22:32.687Z,42.73
2023-04-20T11:23:32.668Z,42.54
2023-04-20T11:24:32.661Z,43.16
2023-04-20T11:25:32.692Z,42.34
2023-04-20T11:26:33.679Z,42.43
2023-04-20T11:27:33.658Z,42.03
2023-04-20T11:28:33.642Z,42.57
2023-04-20T11:29:32.653Z,42.70
2023-04-20T11:30:32.659Z,42.02
2023-04-20T11:31:33.752Z,41.75
2023-04-20T11:32:33.911Z,41.75
2023-04-20T11:33:33.670Z,42.12
2023-04-20T11:34:33.605Z,42.00
2023-04-20T11:35:32.602Z,41.45
2023-04-20T11:36:34.028Z,41.22
2023-04-20T11:37:33.832Z,41.80
2023-04-20T11:38:33.592Z,41.53
2023-04-20T11:39:32.577Z,41.11
2023-04-20T11:40:33.571Z,41.57
2023-04-20T11:41:33.568Z,41.22
2023-04-20T11:42:32.678Z,41.68
2023-04-20T11:43:33.844Z,41.96
2023-04-20T11:44:32.727Z,41.48
2023-04-20T11:45:35.743Z,41.17
2023-04-20T11:46:33.775Z,40.46
2023-04-20T11:47:33.792Z,40.75
2023-04-20T11:48:33.727Z,40.90
2023-04-20T11:49:32.701Z,40.38
2023-04-20T11:50:32.683Z,40.76
2023-04-20T11:51:32.665Z,40.61
2023-04-20T11:52:33.668Z,40.69
2023-04-20T11:53:33.676Z,40.72
2023-04-20T11:54:33.668Z,40.56
2023-04-20T11:55:32.656Z,40.88
2023-04-20T11:56:32.650Z,40.73
2023-04-20T11:57:33.634Z,40.75
2023-04-20T11:58:33.658Z,40.91
2023-04-20T11:59:32.620Z,40.64
2023-04-20T12:00:33.629Z,40.79
2023-04-20T12:01:32.608Z,40.45
2023-04-20T12:02:32.799Z,40.73
2023-04-20T12:03:33.887Z,40.78
2023-04-20T12:04:33.792Z,40.79
2023-04-20T12:05:33.590Z,40.72
2023-04-20T12:06:33.581Z,40.77
2023-04-20T12:07:33.587Z,40.17
2023-04-20T12:08:32.596Z,40.13
2023-04-20T12:09:33.635Z,40.26
2023-04-20T12:10:33.577Z,40.41
2023-04-20T12:11:33.576Z,40.05
2023-04-20T12:12:33.617Z,40.18
2023-04-20T12:13:33.689Z,39.92
2023-04-20T12:14:33.859Z,39.99
2023-04-20T12:15:33.785Z,39.74
2023-04-20T12:16:33.847Z,39.79
2023-04-20T12:17:32.885Z,39.95
2023-04-20T12:18:32.925Z,39.32
2023-04-20T12:19:32.947Z,39.66
2023-04-20T12:20:33.998Z,39.71
2023-04-20T12:21:34.037Z,39.72
2023-04-20T12:22:34.075Z,39.68
2023-04-20T12:23:33.164Z,38.99
2023-04-20T12:24:33.173Z,38.70
2023-04-20T12:25:34.204Z,39.06
2023-04-20T12:26:40.885Z,38.35
2023-04-20T12:27:34.250Z,39.03
2023-04-20T12:28:34.232Z,38.54
2023-04-20T12:29:34.218Z,38.32
2023-04-20T12:30:34.431Z,38.58
2023-04-20T12:31:34.261Z,37.18
2023-04-20T12:32:33.216Z,37.46
2023-04-20T12:33:34.199Z,37.73
2023-04-20T12:34:33.181Z,37.46
2023-04-20T12:35:34.186Z,37.75
2023-04-20T12:36:33.186Z,38.78
2023-04-20T12:37:34.166Z,38.18
2023-04-20T12:38:33.172Z,38.34
2023-04-20T12:39:34.240Z,38.77
2023-04-20T12:40:33.253Z,38.94
2023-04-20T12:41:33.394Z,38.66
2023-04-20T12:42:33.321Z,38.82
2023-04-20T12:43:34.367Z,38.84
2023-04-20T12:44:33.433Z,38.76
2023-04-20T12:45:34.455Z,38.96
2023-04-20T12:46:34.604Z,38.96
2023-04-20T12:47:33.608Z,38.85
2023-04-20T12:48:34.557Z,38.84
2023-04-20T12:49:33.903Z,38.98
2023-04-20T12:50:33.646Z,38.91
2023-04-20T12:51:34.673Z,38.82
2023-04-20T12:52:33.714Z,38.94
2023-04-20T12:53:33.771Z,38.93